Time;durP1;ratioP1;P1;durP2;ratioP2;P2;SDS_P1;SDS_P2;PMS_P1;PMS_P2;Temp;Humidity;BMP_temperature;BMP_pressure;BME280_temperature;BME280_humidity;BME280_pressure;Samples;Min_cycle;Max_cycle;Signal;HPM_P1;HPM_P2
2023/06/25 16:45:36;;;;;;;5.28;3.10;;;;;;;;;;6216974;23;20007;-96
2023/06/25 16:53:22;;;;;;;4.40;3.15;;;;;;;;;;6200981;22;20082;-96
2023/06/25 16:56:10;;;;;;;;;;;;;;;;;;;;;
2023/06/25 16:58:38;;;;;;;5.10;3.22;;;;;;;;;;6121051;23;20005;-96
2023/06/25 17:04:12;;;;;;;5.28;3.35;;;;;;;;;;6203364;23;20351;-96
2023/06/25 17:06:57;;;;;;;6.45;3.17;;;;;;;;;;6197959;23;20031;-96
2023/06/25 17:12:47;;;;;;;4.38;2.83;;;;;;;;;;6203486;23;20017;-96
2023/06/25 17:15:29;;;;;;;5.55;3.58;;;;;;;;;;6179058;23;20001;-96
2023/06/25 17:18:58;;;;;;;;;;;;;;;;;;;;;
2023/06/25 17:22:12;;;;;;;;;;;;;;;;;;;;;
2023/06/25 17:25:20;;;;;;;7.85;3.63;;;;;;;;;;6030123;23;20008;-96
2023/06/25 17:32:04;;;;;;;;;;;;;;;;;;;;;
2023/06/25 17:35:13;;;;;;;6.47;3.40;;;;;;;;;;5840517;24;20038;-96
2023/06/25 17:41:23;;;;;;;;;;;;;;;;;;;;;
2023/06/25 17:47:30;;;;;;;4.53;3.03;;;;;;;;;;6173378;23;20016;-96
2023/06/25 17:50:07;;;;;;;5.40;3.30;;;;;;;;;;6146714;23;20028;-96
2023/06/25 17:52:32;;;;;;;5.40;2.95;;;;;;;;;;6144249;23;20447;-96
2023/06/25 17:55:30;;;;;;;5.45;3.50;;;;;;;;;;6145515;23;20008;-96
2023/06/25 17:58:04;;;;;;;5.43;3.47;;;;;;;;;;6145300;23;20022;-96
2023/06/25 18:04:12;;;;;;;5.72;3.13;;;;;;;;;;6092943;23;20010;-96
2023/06/25 18:07:07;;;;;;;4.40;2.95;;;;;;;;;;6176461;23;19997;-96
2023/06/25 18:13:46;;;;;;;;;;;;;;;;;;;;;
2023/06/25 18:17:06;;;;;;;;;;;;;;;;;;;;;
2023/06/25 18:22:24;;;;;;;5.57;3.47;;;;;;;;;;6161644;23;20024;-96
2023/06/25 18:25:25;;;;;;;;;;;;;;;;;;;;;
2023/06/25 18:28:06;;;;;;;5.03;3.50;;;;;;;;;;6119185;23;20025;-96
2023/06/25 19:26:03;;;;;;;6.85;4.18;;;;;;;;;;6192476;23;20048;-96
2023/06/25 21:11:07;;;;;;;10.93;5.93;;;;;;;;;;6198888;23;20056;-96
2023/06/25 22:09:08;;;;;;;10.27;6.03;;;;;;;;;;6206249;23;20001;-95
2023/06/25 22:11:42;;;;;;;10.23;6.18;;;;;;;;;;6209521;23;20018;-94
2023/06/25 22:14:21;;;;;;;10.40;5.78;;;;;;;;;;6210147;23;19988;-95
2023/06/25 22:16:57;;;;;;;11.85;5.45;;;;;;;;;;6160278;23;19989;-95
2023/06/25 22:19:49;;;;;;;11.10;6.18;;;;;;;;;;6178082;23;20085;-95
2023/06/25 22:22:17;;;;;;;7.40;5.63;;;;;;;;;;6177046;23;20061;-95
2023/06/25 22:24:47;;;;;;;10.10;5.65;;;;;;;;;;6178906;23;20022;-94
2023/06/25 22:27:51;;;;;;;9.18;5.88;;;;;;;;;;6146423;23;20006;-95
2023/06/25 22:30:19;;;;;;;9.25;5.57;;;;;;;;;;6152951;23;19985;-94
2023/06/25 22:32:52;;;;;;;10.52;6.35;;;;;;;;;;6175865;23;19990;-95
2023/06/25 22:35:18;;;;;;;9.95;6.43;;;;;;;;;;6179587;23;19985;-94
2023/06/25 22:37:45;;;;;;;8.32;5.90;;;;;;;;;;6179121;23;20021;-95
2023/06/25 22:40:50;;;;;;;9.57;5.82;;;;;;;;;;6153432;23;20016;-95
2023/06/25 22:43:18;;;;;;;10.40;6.00;;;;;;;;;;6180586;23;20082;-94
2023/06/25 22:45:49;;;;;;;8.57;6.10;;;;;;;;;;6179296;23;20000;-94
2023/06/25 22:48:17;;;;;;;7.60;5.32;;;;;;;;;;6129893;23;19993;-94
2023/06/25 22:50:49;;;;;;;10.98;5.93;;;;;;;;;;6179203;23;20001;-94
2023/06/25 22:53:22;;;;;;;10.48;5.78;;;;;;;;;;6178747;23;19990;-95
2023/06/25 22:55:48;;;;;;;8.75;5.88;;;;;;;;;;6154834;23;20021;-94
2023/06/25 22:58:23;;;;;;;10.13;6.32;;;;;;;;;;6181144;23;20013;-96
2023/06/25 23:00:49;;;;;;;;;;;;;;;;;;6177750;23;19997;-94
2023/06/25 23:03:18;;;;;;;9.85;6.45;;;;;;;;;;6154311;23;19936;-94
2023/06/25 23:05:47;;;;;;;10.82;6.28;;;;;;;;;;6131119;23;20247;-94
2023/06/25 23:08:25;;;;;;;12.63;7.35;;;;;;;;;;6180535;23;20020;-94
2023/06/25 23:10:50;;;;;;;10.60;6.47;;;;;;;;;;6154353;23;20050;-94
2023/06/25 23:13:27;;;;;;;11.88;6.38;;;;;;;;;;6154108;23;20016;-94
2023/06/25 23:15:59;;;;;;;10.27;6.40;;;;;;;;;;6155548;23;20017;-93
2023/06/25 23:18:26;;;;;;;10.35;6.45;;;;;;;;;;6154705;23;19997;-94
2023/06/25 23:21:14;;;;;;;10.57;6.95;;;;;;;;;;6154803;23;20017;-93
2023/06/25 23:23:45;;;;;;;10.48;6.72;;;;;;;;;;6155388;23;19996;-93
2023/06/25 23:26:13;;;;;;;10.43;6.05;;;;;;;;;;6148270;23;20048;-94
2023/06/25 23:28:39;;;;;;;8.25;5.85;;;;;;;;;;6155177;23;20050;-94
2023/06/25 23:31:09;;;;;;;8.77;6.07;;;;;;;;;;6147090;23;20053;-95
2023/06/25 23:33:36;;;;;;;8.82;6.00;;;;;;;;;;6154697;23;20020;-93
2023/06/25 23:36:07;;;;;;;10.30;6.32;;;;;;;;;;6155813;23;20001;-94
2023/06/25 23:38:38;;;;;;;10.38;6.43;;;;;;;;;;6155237;23;20021;-95
2023/06/25 23:41:17;;;;;;;8.40;5.75;;;;;;;;;;6155039;23;20077;-95
2023/06/25 23:43:47;;;;;;;7.60;4.75;;;;;;;;;;6153220;23;20005;-94
2023/06/25 23:49:22;;;;;;;8.07;5.50;;;;;;;;;;6159233;23;20011;-94
2023/06/25 23:51:49;;;;;;;10.52;5.15;;;;;;;;;;6166529;23;20009;-95
2023/06/25 23:57:22;;;;;;;9.52;5.00;;;;;;;;;;6161780;23;20024;-94
